createdAt,value
2022-10-06T00:00:37.503Z,0
2022-10-06T00:03:10.094Z,0
2022-10-06T00:04:26.366Z,0
2022-10-06T00:05:42.685Z,0
2022-10-06T00:06:58.955Z,0
2022-10-06T00:08:14.280Z,0
2022-10-06T00:09:30.577Z,0
2022-10-06T00:10:46.857Z,0
2022-10-06T00:12:03.168Z,0
2022-10-06T00:13:19.467Z,0
2022-10-06T00:14:35.753Z,0
2022-10-06T00:15:52.030Z,0
2022-10-06T00:17:08.330Z,0
2022-10-06T00:18:24.620Z,0
2022-10-06T00:19:40.935Z,0
2022-10-06T00:20:57.215Z,0
2022-10-06T00:22:13.515Z,0
2022-10-06T00:23:29.825Z,0
2022-10-06T00:24:45.117Z,0
2022-10-06T00:26:01.421Z,0
2022-10-06T00:27:17.692Z,0
2022-10-06T00:28:34.008Z,0
2022-10-06T00:29:50.287Z,0
2022-10-06T00:31:06.575Z,0
2022-10-06T00:32:22.878Z,0
2022-10-06T00:33:39.183Z,0
2022-10-06T00:34:55.467Z,0
2022-10-06T00:36:11.784Z,0
2022-10-06T00:37:28.048Z,0
2022-10-06T00:38:44.342Z,0
2022-10-06T00:40:00.641Z,0
2022-10-06T00:41:15.952Z,0
2022-10-06T00:42:32.238Z,0
2022-10-06T00:43:48.558Z,0
2022-10-06T00:45:04.837Z,0
2022-10-06T00:46:21.128Z,0
2022-10-06T00:47:37.421Z,0
2022-10-06T00:48:53.717Z,0
2022-10-06T00:50:10.016Z,0
2022-10-06T00:51:26.301Z,0
2022-10-06T00:52:42.609Z,0
2022-10-06T00:53:58.895Z,0
2022-10-06T00:55:15.188Z,0
2022-10-06T00:56:31.481Z,0
2022-10-06T00:57:46.787Z,0
2022-10-06T00:59:03.083Z,0
2022-10-06T01:00:19.385Z,0
2022-10-06T01:01:35.674Z,0
2022-10-06T01:02:51.987Z,0
2022-10-06T01:04:08.264Z,0
2022-10-06T01:05:24.548Z,0
2022-10-06T01:06:40.843Z,0
2022-10-06T01:07:57.136Z,0
2022-10-06T01:09:13.438Z,0
2022-10-06T01:10:29.723Z,0
2022-10-06T01:11:46.045Z,0
2022-10-06T01:13:02.322Z,0
2022-10-06T01:14:17.639Z,0
2022-10-06T01:15:33.927Z,0
2022-10-06T01:16:50.221Z,0
2022-10-06T01:18:06.515Z,0
2022-10-06T01:19:22.812Z,0
2022-10-06T01:20:39.113Z,0
2022-10-06T01:21:55.386Z,0
2022-10-06T01:23:11.698Z,0
2022-10-06T01:24:27.991Z,0
2022-10-06T01:25:44.268Z,0
2022-10-06T01:27:00.562Z,0
2022-10-06T01:28:16.879Z,0
2022-10-06T01:29:33.152Z,0
2022-10-06T01:30:48.476Z,0
2022-10-06T01:32:04.772Z,0
2022-10-06T01:33:21.050Z,0
2022-10-06T01:34:37.341Z,0
2022-10-06T01:35:53.660Z,0
2022-10-06T01:37:09.946Z,0
2022-10-06T01:38:26.000Z,0
2022-10-06T01:39:42.534Z,0
2022-10-06T01:40:58.817Z,0
2022-10-06T01:42:15.110Z,0
2022-10-06T01:43:31.405Z,0
2022-10-06T01:44:47.697Z,0
2022-10-06T01:46:03.994Z,0
2022-10-06T01:47:19.301Z,0
2022-10-06T01:48:35.591Z,0
2022-10-06T01:49:51.901Z,0
2022-10-06T01:51:08.198Z,0
2022-10-06T01:52:24.477Z,0
2022-10-06T01:53:40.780Z,0
2022-10-06T01:54:57.088Z,0
2022-10-06T01:56:13.366Z,0
2022-10-06T01:57:29.649Z,0
2022-10-06T01:58:45.946Z,0
2022-10-06T02:00:02.271Z,0
2022-10-06T02:01:18.551Z,0
2022-10-06T02:02:34.836Z,0
2022-10-06T02:03:50.143Z,0
2022-10-06T02:05:06.433Z,0
2022-10-06T02:06:22.744Z,0
2022-10-06T02:07:39.034Z,0
2022-10-06T02:08:55.320Z,0
2022-10-06T02:10:11.609Z,0
2022-10-06T02:11:27.901Z,0
2022-10-06T02:12:44.219Z,0
2022-10-06T02:14:00.503Z,0
2022-10-06T02:15:16.785Z,0
2022-10-06T02:16:33.082Z,0
2022-10-06T02:17:49.382Z,0
2022-10-06T02:19:05.677Z,0
2022-10-06T02:20:20.991Z,0
2022-10-06T02:21:37.301Z,0
2022-10-06T02:22:53.564Z,0
2022-10-06T02:24:09.875Z,0
2022-10-06T02:25:26.171Z,0
2022-10-06T02:26:42.460Z,0
2022-10-06T02:27:58.756Z,0
2022-10-06T02:29:15.047Z,0
2022-10-06T02:30:31.344Z,0
2022-10-06T02:31:47.625Z,0
2022-10-06T02:33:03.913Z,0
2022-10-06T02:34:20.213Z,0
2022-10-06T02:35:36.526Z,0
2022-10-06T02:36:51.825Z,0
2022-10-06T02:38:08.123Z,0
2022-10-06T02:39:24.411Z,0
2022-10-06T02:40:40.702Z,0
2022-10-06T02:41:56.989Z,0
2022-10-06T02:43:13.298Z,0
2022-10-06T02:44:29.598Z,0
2022-10-06T02:45:45.875Z,0
2022-10-06T02:47:02.182Z,0
2022-10-06T02:48:18.484Z,0
2022-10-06T02:49:34.766Z,0
2022-10-06T02:50:51.068Z,0
2022-10-06T02:52:07.348Z,0
2022-10-06T02:53:22.675Z,0
2022-10-06T02:54:38.954Z,0
2022-10-06T02:55:55.254Z,0
2022-10-06T02:57:11.531Z,0
2022-10-06T02:58:27.839Z,0
2022-10-06T02:59:44.128Z,0
2022-10-06T03:01:00.447Z,0
2022-10-06T03:02:16.715Z,0
2022-10-06T03:03:33.026Z,0
2022-10-06T03:04:49.315Z,0
2022-10-06T03:06:05.590Z,0
2022-10-06T03:07:21.892Z,0
2022-10-06T03:08:38.184Z,0
2022-10-06T03:09:53.502Z,0
2022-10-06T03:11:09.788Z,0
2022-10-06T03:12:26.093Z,0
2022-10-06T03:13:42.375Z,0
2022-10-06T03:14:58.670Z,0
2022-10-06T03:16:14.959Z,0
2022-10-06T03:17:31.253Z,0
2022-10-06T03:18:47.551Z,0
2022-10-06T03:20:03.859Z,0
2022-10-06T03:21:20.144Z,0
2022-10-06T03:22:36.434Z,0
2022-10-06T03:23:52.734Z,0
2022-10-06T03:25:09.018Z,0
2022-10-06T03:26:24.331Z,0
2022-10-06T03:27:40.655Z,0
2022-10-06T03:28:56.931Z,0
2022-10-06T03:30:13.234Z,0
2022-10-06T03:31:29.525Z,0
2022-10-06T03:32:45.798Z,0
2022-10-06T03:34:02.095Z,0
2022-10-06T03:35:18.393Z,0
2022-10-06T03:36:34.694Z,0
2022-10-06T03:37:50.979Z,0
2022-10-06T03:39:07.273Z,0
2022-10-06T03:40:23.570Z,0
2022-10-06T03:41:39.868Z,0
2022-10-06T03:42:55.163Z,0
2022-10-06T03:44:11.473Z,0
2022-10-06T03:45:27.782Z,0
2022-10-06T03:46:44.063Z,0
2022-10-06T03:48:00.368Z,0
2022-10-06T03:49:16.642Z,0
2022-10-06T03:50:32.928Z,0
2022-10-06T03:51:49.230Z,0
2022-10-06T03:53:05.522Z,0
2022-10-06T03:54:21.820Z,0
2022-10-06T03:55:38.117Z,0
2022-10-06T03:56:54.408Z,0
2022-10-06T03:58:10.716Z,0
2022-10-06T03:59:26.015Z,0
2022-10-06T04:00:42.325Z,0
2022-10-06T04:01:58.605Z,0
2022-10-06T04:03:14.889Z,0
2022-10-06T04:04:31.185Z,0
2022-10-06T04:05:47.483Z,0
2022-10-06T04:07:03.794Z,0
2022-10-06T04:08:20.071Z,0
2022-10-06T04:09:36.354Z,0
2022-10-06T04:10:52.656Z,0
2022-10-06T04:12:08.966Z,0
2022-10-06T04:13:25.246Z,0
2022-10-06T04:14:41.529Z,0
2022-10-06T04:15:56.847Z,0
2022-10-06T04:17:13.136Z,0
2022-10-06T04:18:29.428Z,0
2022-10-06T04:19:45.722Z,0
2022-10-06T04:21:02.028Z,0
2022-10-06T04:22:18.338Z,0
2022-10-06T04:23:33.641Z,0
2022-10-06T04:24:49.928Z,0
2022-10-06T04:26:06.214Z,0
2022-10-06T04:27:22.535Z,0
2022-10-06T04:28:38.813Z,0
2022-10-06T04:29:55.096Z,0
2022-10-06T04:31:11.425Z,0
2022-10-06T04:32:27.713Z,0
2022-10-06T04:33:43.987Z,0
2022-10-06T04:35:00.295Z,0
2022-10-06T04:36:16.584Z,0
2022-10-06T04:37:32.871Z,0
2022-10-06T04:38:49.172Z,0
2022-10-06T04:40:04.466Z,0
2022-10-06T04:41:20.777Z,0
2022-10-06T04:42:37.080Z,0
2022-10-06T04:43:53.365Z,0
2022-10-06T04:45:09.642Z,0
2022-10-06T04:46:25.938Z,0
2022-10-06T04:47:42.240Z,0
2022-10-06T04:48:58.534Z,0
2022-10-06T04:50:14.828Z,0
2022-10-06T04:51:31.126Z,0
2022-10-06T04:52:47.424Z,0
2022-10-06T04:54:03.718Z,0
2022-10-06T04:55:20.004Z,0
2022-10-06T04:56:35.312Z,0
2022-10-06T04:57:51.610Z,0
2022-10-06T05:00:24.141Z,1
2022-10-06T05:01:40.429Z,0
2022-10-06T05:02:56.729Z,0
2022-10-06T05:04:12.979Z,1
2022-10-06T05:05:29.221Z,1
2022-10-06T05:06:45.522Z,0
2022-10-06T05:08:01.802Z,0
2022-10-06T05:09:18.068Z,2
2022-10-06T05:10:34.299Z,1
2022-10-06T05:11:50.534Z,1
2022-10-06T05:13:05.806Z,3
2022-10-06T05:14:22.033Z,2
2022-10-06T05:15:38.277Z,3
2022-10-06T05:16:54.509Z,10
2022-10-06T05:18:10.749Z,9
2022-10-06T05:19:26.999Z,7
2022-10-06T05:20:43.243Z,5
2022-10-06T05:21:59.484Z,6
2022-10-06T05:23:15.709Z,13
2022-10-06T05:24:31.965Z,16
2022-10-06T05:25:48.189Z,11
2022-10-06T05:27:04.447Z,10
2022-10-06T05:28:20.672Z,10
2022-10-06T05:29:35.941Z,15
2022-10-06T05:30:52.179Z,20
2022-10-06T05:32:08.410Z,17
2022-10-06T05:33:24.649Z,11
2022-10-06T05:34:40.889Z,10
2022-10-06T05:35:57.129Z,11
2022-10-06T05:37:13.370Z,11
2022-10-06T05:38:29.612Z,16
2022-10-06T05:39:45.860Z,16
2022-10-06T05:41:02.089Z,14
2022-10-06T05:42:18.326Z,14
2022-10-06T05:43:34.568Z,14
2022-10-06T05:44:50.824Z,14
2022-10-06T05:46:06.061Z,18
2022-10-06T05:47:22.312Z,27
2022-10-06T05:48:38.541Z,44
2022-10-06T05:49:54.792Z,76
2022-10-06T05:51:11.041Z,112
2022-10-06T05:52:27.266Z,118
2022-10-06T05:53:43.520Z,130
2022-10-06T05:54:59.760Z,166
2022-10-06T05:56:15.986Z,145
2022-10-06T05:57:32.237Z,115
2022-10-06T05:58:48.477Z,71
2022-10-06T06:00:04.706Z,69
2022-10-06T06:01:20.947Z,89
2022-10-06T06:02:36.205Z,97
2022-10-06T06:03:52.447Z,143
2022-10-06T06:05:08.685Z,153
2022-10-06T06:06:24.924Z,138
2022-10-06T06:07:41.171Z,135
2022-10-06T06:08:57.417Z,143
2022-10-06T06:10:13.648Z,189
2022-10-06T06:11:29.888Z,232
2022-10-06T06:12:46.125Z,239
2022-10-06T06:14:02.373Z,253
2022-10-06T06:15:18.614Z,237
2022-10-06T06:16:34.845Z,307
2022-10-06T06:17:51.090Z,300
2022-10-06T06:20:22.575Z,334
2022-10-06T06:21:38.830Z,292
2022-10-06T06:22:55.075Z,267
2022-10-06T06:24:11.308Z,254
2022-10-06T06:25:27.541Z,345
2022-10-06T06:26:43.785Z,343
2022-10-06T06:28:00.026Z,316
2022-10-06T06:29:16.258Z,230
2022-10-06T06:30:32.516Z,216
2022-10-06T06:31:48.737Z,168
2022-10-06T06:33:04.990Z,159
2022-10-06T06:34:21.222Z,161
2022-10-06T06:35:36.479Z,133
2022-10-06T06:36:52.712Z,93
2022-10-06T06:38:08.969Z,238
2022-10-06T06:39:25.193Z,332
2022-10-06T06:40:41.453Z,492
2022-10-06T06:41:57.673Z,700
2022-10-06T06:43:13.919Z,647
2022-10-06T06:44:30.162Z,469
2022-10-06T06:45:46.398Z,388
2022-10-06T06:47:02.637Z,419
2022-10-06T06:48:18.884Z,378
2022-10-06T06:49:35.124Z,360
2022-10-06T06:50:51.361Z,438
2022-10-06T06:52:06.617Z,525
2022-10-06T06:53:22.862Z,542
2022-10-06T06:54:39.095Z,475
2022-10-06T06:55:55.342Z,411
2022-10-06T06:57:11.584Z,503
2022-10-06T06:58:27.831Z,520
2022-10-06T06:59:44.053Z,541
2022-10-06T07:01:00.309Z,548
2022-10-06T07:02:16.533Z,560
2022-10-06T07:03:32.789Z,511
2022-10-06T07:04:49.012Z,554
2022-10-06T07:06:05.255Z,563
2022-10-06T07:07:21.496Z,437
2022-10-06T07:08:36.753Z,333
2022-10-06T07:09:53.006Z,316
2022-10-06T07:11:09.245Z,362
2022-10-06T07:12:25.485Z,354
2022-10-06T07:13:41.724Z,427
2022-10-06T07:14:57.948Z,474
2022-10-06T07:16:14.207Z,501
2022-10-06T07:17:30.444Z,550
2022-10-06T07:18:46.671Z,694
2022-10-06T07:20:02.924Z,717
2022-10-06T07:21:19.149Z,689
2022-10-06T07:22:35.391Z,614
2022-10-06T07:23:51.631Z,679
2022-10-06T07:25:06.891Z,751
2022-10-06T07:26:23.126Z,526
2022-10-06T07:27:39.371Z,806
2022-10-06T07:28:55.625Z,1568
2022-10-06T07:30:11.846Z,1673
2022-10-06T07:31:28.096Z,1396
2022-10-06T07:32:44.326Z,1175
2022-10-06T07:34:00.583Z,1922
2022-10-06T07:35:16.813Z,899
2022-10-06T07:36:33.054Z,1586
2022-10-06T07:37:49.288Z,4198
2022-10-06T07:39:05.533Z,26221
2022-10-06T07:40:21.772Z,63977
2022-10-06T07:41:37.043Z,18880
2022-10-06T07:42:53.265Z,7067
2022-10-06T07:44:09.513Z,76681
2022-10-06T07:45:25.755Z,76575
2022-10-06T07:46:41.991Z,79909
2022-10-06T07:47:58.242Z,76029
2022-10-06T07:49:14.463Z,80275
2022-10-06T07:50:30.702Z,77986
2022-10-06T07:51:46.948Z,74201
2022-10-06T07:53:03.200Z,78961
2022-10-06T07:54:19.435Z,77858
2022-10-06T07:55:35.670Z,80331
2022-10-06T07:56:51.902Z,82238
2022-10-06T07:58:07.160Z,77681
2022-10-06T07:59:23.399Z,77798
2022-10-06T08:00:39.657Z,80179
2022-10-06T08:03:12.125Z,76831
2022-10-06T08:04:28.377Z,77981
2022-10-06T08:05:44.599Z,81373
2022-10-06T08:07:00.842Z,78690
2022-10-06T08:08:17.000Z,81912
2022-10-06T08:09:33.325Z,81917
2022-10-06T08:10:49.574Z,78677
2022-10-06T08:12:05.805Z,80382
2022-10-06T08:13:22.043Z,82586
2022-10-06T08:14:37.301Z,78532
2022-10-06T08:15:53.545Z,79114
2022-10-06T08:17:09.777Z,78874
2022-10-06T08:18:26.019Z,78433
2022-10-06T08:19:42.265Z,80479
2022-10-06T08:20:58.500Z,80974
2022-10-06T08:22:14.745Z,80191
2022-10-06T08:23:30.981Z,80777
2022-10-06T08:24:47.227Z,78550
2022-10-06T08:26:03.468Z,80064
2022-10-06T08:27:19.704Z,82012
2022-10-06T08:28:35.948Z,80938
2022-10-06T08:29:52.198Z,81403
2022-10-06T08:31:07.000Z,81749
2022-10-06T08:32:23.685Z,80706
2022-10-06T08:33:39.928Z,80040
2022-10-06T08:34:56.177Z,59040
2022-10-06T08:36:12.419Z,3284
2022-10-06T08:37:28.646Z,16469
2022-10-06T08:38:43.915Z,81001
2022-10-06T08:40:00.171Z,80559
2022-10-06T08:41:16.393Z,78350
2022-10-06T08:42:32.640Z,82981
2022-10-06T08:43:48.874Z,74550
2022-10-06T08:45:05.135Z,83503
2022-10-06T08:46:21.365Z,63632
2022-10-06T08:47:37.599Z,8151
2022-10-06T08:48:53.841Z,77851
2022-10-06T08:50:10.080Z,82142
2022-10-06T08:51:26.322Z,57909
2022-10-06T08:52:42.584Z,75078
2022-10-06T08:53:58.824Z,72624
2022-10-06T08:55:14.078Z,13857
2022-10-06T08:56:30.317Z,80780
2022-10-06T08:57:46.552Z,78969
2022-10-06T08:59:02.796Z,80776
2022-10-06T09:00:19.027Z,80908
2022-10-06T09:01:35.274Z,82192
2022-10-06T09:02:51.526Z,80527
2022-10-06T09:04:07.753Z,81018
2022-10-06T09:05:24.000Z,82227
2022-10-06T09:06:40.245Z,75107
2022-10-06T09:07:56.485Z,75816
2022-10-06T09:09:12.716Z,79877
2022-10-06T09:10:28.971Z,81387
2022-10-06T09:11:44.217Z,76988
2022-10-06T09:13:00.461Z,74617
2022-10-06T09:14:16.690Z,78743
2022-10-06T09:15:32.934Z,78391
2022-10-06T09:16:49.176Z,76672
2022-10-06T09:18:05.425Z,78770
2022-10-06T09:19:21.671Z,75386
2022-10-06T09:20:37.913Z,75958
2022-10-06T09:21:54.138Z,80901
2022-10-06T09:24:26.618Z,75080
2022-10-06T09:28:14.373Z,74805
2022-10-06T09:32:03.080Z,65642
2022-10-06T09:33:19.328Z,8392
2022-10-06T09:34:35.572Z,11046
2022-10-06T09:38:24.282Z,2246
2022-10-06T09:39:40.536Z,13556
2022-10-06T09:43:29.263Z,5119
2022-10-06T09:44:44.519Z,76115
2022-10-06T09:46:00.769Z,64201
2022-10-06T09:49:49.476Z,75042
2022-10-06T09:51:05.721Z,74551
2022-10-06T09:53:38.210Z,82064
2022-10-06T09:54:54.453Z,63757
2022-10-06T09:56:10.695Z,7293
2022-10-06T09:57:26.920Z,70321
2022-10-06T09:58:43.160Z,23687
2022-10-06T09:59:59.398Z,4278
2022-10-06T10:01:14.656Z,83322
2022-10-06T10:02:30.896Z,77422
2022-10-06T10:03:47.137Z,83550
2022-10-06T10:05:03.382Z,70720
2022-10-06T10:06:19.618Z,10917
2022-10-06T10:07:35.864Z,80202
2022-10-06T10:08:52.114Z,81138
2022-10-06T10:10:08.339Z,81862
2022-10-06T10:11:24.595Z,82320
2022-10-06T10:12:40.817Z,74957
2022-10-06T10:13:57.073Z,64253
2022-10-06T10:15:13.307Z,8123
2022-10-06T10:16:29.544Z,9026
2022-10-06T10:17:44.799Z,64863
2022-10-06T10:19:01.040Z,7003
2022-10-06T10:20:17.280Z,80091
2022-10-06T10:21:33.535Z,82233
2022-10-06T10:22:49.761Z,80263
2022-10-06T10:24:06.011Z,83148
2022-10-06T10:25:22.240Z,71991
2022-10-06T10:26:38.493Z,38141
2022-10-06T10:27:54.723Z,21844
2022-10-06T10:29:10.964Z,5866
2022-10-06T10:30:27.206Z,5406
2022-10-06T10:31:43.441Z,5145
2022-10-06T10:32:59.698Z,5399
2022-10-06T10:34:14.949Z,5242
2022-10-06T10:35:31.195Z,6750
2022-10-06T10:36:47.436Z,6557
2022-10-06T10:38:03.667Z,5825
2022-10-06T10:39:19.912Z,5875
2022-10-06T10:40:36.148Z,4075
2022-10-06T10:41:52.377Z,5485
2022-10-06T10:43:08.621Z,9850
2022-10-06T10:44:24.858Z,7362
2022-10-06T10:45:41.111Z,4845
2022-10-06T10:46:57.346Z,5201
2022-10-06T10:48:13.582Z,1919
2022-10-06T10:49:29.825Z,3903
2022-10-06T10:50:45.093Z,17012
2022-10-06T10:52:01.320Z,19503
2022-10-06T10:53:17.560Z,3501
2022-10-06T10:54:33.800Z,16568
2022-10-06T10:55:50.033Z,18525
2022-10-06T10:57:06.281Z,9517
2022-10-06T10:58:22.516Z,28023
2022-10-06T10:59:38.754Z,22912
2022-10-06T11:00:54.997Z,6935
2022-10-06T11:02:11.235Z,4778
2022-10-06T11:03:27.491Z,2513
2022-10-06T11:04:43.721Z,17819
2022-10-06T11:05:59.967Z,7467
2022-10-06T11:07:15.214Z,4416
2022-10-06T11:08:31.464Z,5272
2022-10-06T11:09:47.707Z,4535
2022-10-06T11:11:03.933Z,2670
2022-10-06T11:12:20.178Z,8350
2022-10-06T11:13:36.422Z,4773
2022-10-06T11:14:52.655Z,4006
2022-10-06T11:16:08.911Z,4056
2022-10-06T11:17:25.136Z,6329
2022-10-06T11:18:41.381Z,4147
2022-10-06T11:19:57.614Z,3725
2022-10-06T11:21:13.857Z,4567
2022-10-06T11:22:30.099Z,2056
2022-10-06T11:23:45.364Z,10435
2022-10-06T11:25:01.601Z,9979
2022-10-06T11:26:17.841Z,6493
2022-10-06T11:27:34.085Z,7250
2022-10-06T11:28:50.328Z,3727
2022-10-06T11:30:06.565Z,4440
2022-10-06T11:31:22.801Z,2375
2022-10-06T11:32:39.029Z,7076
2022-10-06T11:33:55.273Z,3403
2022-10-06T11:35:11.521Z,2773
2022-10-06T11:36:27.768Z,6100
2022-10-06T11:37:43.992Z,3530
2022-10-06T11:39:00.229Z,2203
2022-10-06T11:40:15.492Z,10061
2022-10-06T11:41:31.742Z,3033
2022-10-06T11:42:47.968Z,5301
2022-10-06T11:44:04.213Z,2798
2022-10-06T11:45:20.463Z,2446
2022-10-06T11:46:36.701Z,6023
2022-10-06T11:47:52.930Z,3248
2022-10-06T11:49:09.186Z,2869
2022-10-06T11:50:25.409Z,4360
2022-10-06T11:51:41.667Z,3248
2022-10-06T11:52:57.897Z,3245
2022-10-06T11:54:14.140Z,3214
2022-10-06T11:55:30.387Z,2939
2022-10-06T11:56:45.624Z,3151
2022-10-06T11:58:01.874Z,2927
2022-10-06T11:59:18.107Z,2740
2022-10-06T12:00:34.357Z,2603
2022-10-06T12:01:50.596Z,4457
2022-10-06T12:03:06.825Z,1738
2022-10-06T12:04:23.080Z,6206
2022-10-06T12:05:39.318Z,36013
2022-10-06T12:06:55.555Z,17582
2022-10-06T12:08:11.787Z,5335
2022-10-06T12:09:28.030Z,2350
2022-10-06T12:10:44.268Z,13921
2022-10-06T12:12:00.513Z,10636
2022-10-06T12:13:15.781Z,22988
2022-10-06T12:14:32.016Z,25953
2022-10-06T12:15:48.259Z,15142
2022-10-06T12:17:04.506Z,2765
2022-10-06T12:18:20.736Z,15888
2022-10-06T12:19:36.980Z,1308
2022-10-06T12:20:53.219Z,4231
2022-10-06T12:22:09.451Z,11716
2022-10-06T12:23:25.690Z,7372
2022-10-06T12:24:41.939Z,16951
2022-10-06T12:25:58.192Z,2633
2022-10-06T12:27:14.417Z,16392
2022-10-06T12:28:30.665Z,1628
2022-10-06T12:29:45.927Z,5944
2022-10-06T12:31:02.151Z,3289
2022-10-06T12:32:18.390Z,1460
2022-10-06T12:33:34.647Z,5875
2022-10-06T12:34:50.884Z,2386
2022-10-06T12:36:07.116Z,2096
2022-10-06T12:37:23.349Z,2732
2022-10-06T12:38:39.611Z,20455
2022-10-06T12:39:55.833Z,7573
2022-10-06T12:41:12.076Z,8013
2022-10-06T12:42:28.330Z,4855
2022-10-06T12:43:44.566Z,8847
2022-10-06T12:45:00.800Z,77132
2022-10-06T12:46:16.055Z,77169
2022-10-06T12:47:32.299Z,77295
2022-10-06T12:48:48.528Z,71831
2022-10-06T12:50:04.773Z,32442
2022-10-06T12:51:21.017Z,8618
2022-10-06T12:52:37.250Z,3281
2022-10-06T12:53:52.521Z,3179
2022-10-06T12:55:08.750Z,2997
2022-10-06T12:56:24.993Z,2976
2022-10-06T12:57:41.236Z,2765
2022-10-06T12:58:57.467Z,2723
2022-10-06T13:00:13.720Z,2967
2022-10-06T13:01:29.950Z,2864
2022-10-06T13:02:46.207Z,2878
2022-10-06T13:04:02.426Z,2965
2022-10-06T13:05:18.678Z,2758
2022-10-06T13:06:34.913Z,2890
2022-10-06T13:07:51.159Z,2801
2022-10-06T13:09:07.403Z,1177
2022-10-06T13:10:22.649Z,3517
2022-10-06T13:11:38.889Z,31773
2022-10-06T13:12:55.133Z,77488
2022-10-06T13:14:11.374Z,75361
2022-10-06T13:15:27.618Z,76361
2022-10-06T13:16:43.852Z,75075
2022-10-06T13:18:00.090Z,62694
2022-10-06T13:19:16.328Z,15093
2022-10-06T13:20:32.567Z,3403
2022-10-06T13:21:48.819Z,7834
2022-10-06T13:23:05.043Z,4326
2022-10-06T13:24:21.283Z,1248
2022-10-06T13:25:37.526Z,6586
2022-10-06T13:26:52.790Z,4733
2022-10-06T13:28:09.035Z,2679
2022-10-06T13:29:25.265Z,2302
2022-10-06T13:30:41.513Z,2249
2022-10-06T13:31:57.754Z,1686
2022-10-06T13:33:13.989Z,12785
2022-10-06T13:34:30.234Z,8405
2022-10-06T13:35:46.460Z,5594
2022-10-06T13:37:02.717Z,4240
2022-10-06T13:38:18.957Z,2603
2022-10-06T13:39:35.194Z,2328
2022-10-06T13:40:51.438Z,2475
2022-10-06T13:42:07.669Z,2440
2022-10-06T13:43:22.923Z,2094
2022-10-06T13:44:39.157Z,2504
2022-10-06T13:45:55.401Z,2444
2022-10-06T13:47:11.651Z,2529
2022-10-06T13:48:27.894Z,2521
2022-10-06T13:49:44.135Z,2029
2022-10-06T13:51:00.374Z,1380
2022-10-06T13:52:16.608Z,4641
2022-10-06T13:53:32.857Z,2088
2022-10-06T13:54:49.087Z,2290
2022-10-06T13:56:05.000Z,2223
2022-10-06T13:57:21.577Z,2292
2022-10-06T13:58:37.817Z,2214
2022-10-06T13:59:53.075Z,2106
2022-10-06T14:01:09.310Z,2068
2022-10-06T14:02:25.550Z,1997
2022-10-06T14:03:41.795Z,1929
2022-10-06T14:04:58.030Z,2267
2022-10-06T14:06:14.260Z,2237
2022-10-06T14:07:30.514Z,2112
2022-10-06T14:08:46.736Z,2020
2022-10-06T14:10:02.983Z,1985
2022-10-06T14:11:19.225Z,1991
2022-10-06T14:12:35.469Z,2167
2022-10-06T14:13:51.696Z,2090
2022-10-06T14:15:07.938Z,1791
2022-10-06T14:16:23.213Z,2008
2022-10-06T14:17:39.441Z,1924
2022-10-06T14:18:55.690Z,2096
2022-10-06T14:20:11.926Z,2060
2022-10-06T14:21:28.158Z,1845
2022-10-06T14:22:44.393Z,2120
2022-10-06T14:24:00.634Z,875
2022-10-06T14:25:16.874Z,1876
2022-10-06T14:26:33.134Z,11691
2022-10-06T14:27:49.356Z,6374
2022-10-06T14:29:05.606Z,6851
2022-10-06T14:30:21.841Z,4539
2022-10-06T14:31:38.085Z,3876
2022-10-06T14:32:53.353Z,2280
2022-10-06T14:34:09.583Z,2708
2022-10-06T14:35:25.812Z,1212
2022-10-06T14:36:42.053Z,3773
2022-10-06T14:37:58.310Z,2429
2022-10-06T14:39:14.538Z,4849
2022-10-06T14:40:30.789Z,2793
2022-10-06T14:41:47.020Z,4243
2022-10-06T14:43:03.265Z,2062
2022-10-06T14:44:19.508Z,1981
2022-10-06T14:45:35.745Z,3401
2022-10-06T14:46:51.984Z,2750
2022-10-06T14:48:08.210Z,2303
2022-10-06T14:49:23.475Z,1537
2022-10-06T14:50:39.720Z,1352
2022-10-06T14:51:55.950Z,3473
2022-10-06T14:53:12.206Z,1405
2022-10-06T14:54:28.443Z,6589
2022-10-06T14:55:44.672Z,11710
2022-10-06T14:57:00.918Z,11020
2022-10-06T14:58:17.148Z,8606
2022-10-06T14:59:33.397Z,10212
2022-10-06T15:00:49.640Z,8158
2022-10-06T15:02:05.885Z,5785
2022-10-06T15:03:22.119Z,12124
2022-10-06T15:04:38.355Z,10810
2022-10-06T15:05:53.620Z,5804
2022-10-06T15:07:09.851Z,2151
2022-10-06T15:08:26.100Z,12776
2022-10-06T15:09:42.329Z,8254
2022-10-06T15:10:58.579Z,8747
2022-10-06T15:12:14.814Z,5879
2022-10-06T15:13:31.052Z,4024
2022-10-06T15:14:47.298Z,11817
2022-10-06T15:16:03.541Z,9421
2022-10-06T15:17:19.780Z,6688
2022-10-06T15:18:36.022Z,6345
2022-10-06T15:19:52.256Z,3528
2022-10-06T15:21:08.502Z,7483
2022-10-06T15:22:23.749Z,5976
2022-10-06T15:23:39.994Z,5515
2022-10-06T15:24:56.235Z,6689
2022-10-06T15:26:12.463Z,5525
2022-10-06T15:27:28.718Z,6664
2022-10-06T15:28:44.959Z,8554
2022-10-06T15:30:01.199Z,5230
2022-10-06T15:31:17.437Z,5570
2022-10-06T15:32:33.663Z,9268
2022-10-06T15:33:49.910Z,6599
2022-10-06T15:35:06.149Z,3223
2022-10-06T15:36:22.386Z,1498
2022-10-06T15:37:38.625Z,1081
2022-10-06T15:38:53.893Z,1034
2022-10-06T15:40:10.119Z,991
2022-10-06T15:41:26.379Z,974
2022-10-06T15:42:42.618Z,944
2022-10-06T15:43:58.842Z,925
2022-10-06T15:45:15.082Z,906
2022-10-06T15:46:31.322Z,891
2022-10-06T15:47:47.560Z,865
2022-10-06T15:49:03.801Z,849
2022-10-06T15:50:20.046Z,826
2022-10-06T15:51:36.283Z,815
2022-10-06T15:52:52.520Z,789
2022-10-06T15:54:08.772Z,768
2022-10-06T15:55:24.034Z,746
2022-10-06T15:56:40.275Z,725
2022-10-06T15:57:56.510Z,708
2022-10-06T15:59:12.747Z,684
2022-10-06T16:00:28.987Z,661
2022-10-06T16:01:45.228Z,640
2022-10-06T16:03:01.468Z,617
2022-10-06T16:04:17.699Z,600
2022-10-06T16:05:33.941Z,576
2022-10-06T16:06:50.192Z,554
2022-10-06T16:08:06.426Z,533
2022-10-06T16:09:22.658Z,513
2022-10-06T16:10:38.920Z,493
2022-10-06T16:11:54.155Z,478
2022-10-06T16:13:10.409Z,457
2022-10-06T16:14:26.634Z,431
2022-10-06T16:15:42.884Z,404
2022-10-06T16:16:59.122Z,387
2022-10-06T16:18:15.361Z,371
2022-10-06T16:19:31.603Z,354
2022-10-06T16:20:47.844Z,337
2022-10-06T16:22:04.084Z,320
2022-10-06T16:23:20.320Z,299
2022-10-06T16:24:36.555Z,280
2022-10-06T16:25:52.793Z,262
2022-10-06T16:27:09.046Z,237
2022-10-06T16:28:24.291Z,220
2022-10-06T16:29:40.538Z,198
2022-10-06T16:30:56.784Z,180
2022-10-06T16:32:13.009Z,163
2022-10-06T16:33:29.258Z,149
2022-10-06T16:34:45.507Z,135
2022-10-06T16:36:01.741Z,120
2022-10-06T16:37:17.982Z,107
2022-10-06T16:38:34.230Z,93
2022-10-06T16:39:50.449Z,83
2022-10-06T16:41:06.690Z,72
2022-10-06T16:42:22.939Z,60
2022-10-06T16:43:39.188Z,52
2022-10-06T16:44:54.436Z,45
2022-10-06T16:46:10.674Z,36
2022-10-06T16:47:26.905Z,31
2022-10-06T16:48:43.149Z,29
2022-10-06T16:49:59.391Z,26
2022-10-06T16:51:15.640Z,24
2022-10-06T16:52:31.867Z,13
2022-10-06T16:53:48.119Z,13
2022-10-06T16:55:04.346Z,10
2022-10-06T16:56:20.595Z,5
2022-10-06T16:57:36.827Z,3
2022-10-06T16:58:53.075Z,7
2022-10-06T17:00:09.316Z,5
2022-10-06T17:01:24.578Z,2
2022-10-06T17:02:40.815Z,1
2022-10-06T17:03:57.057Z,2
2022-10-06T17:05:13.298Z,2
2022-10-06T17:06:29.522Z,1
2022-10-06T17:07:45.782Z,1
2022-10-06T17:09:01.036Z,1
2022-10-06T17:10:17.324Z,0
2022-10-06T17:11:33.622Z,0
2022-10-06T17:12:49.912Z,0
2022-10-06T17:14:06.217Z,0
2022-10-06T17:15:22.503Z,0
2022-10-06T17:16:38.790Z,0
2022-10-06T17:17:55.099Z,0
2022-10-06T17:19:11.378Z,0
2022-10-06T17:20:27.676Z,0
2022-10-06T17:21:43.964Z,0
2022-10-06T17:23:00.260Z,0
2022-10-06T17:24:16.551Z,0
2022-10-06T17:25:31.864Z,0
2022-10-06T17:26:48.176Z,0
2022-10-06T17:28:04.000Z,0
2022-10-06T17:29:20.761Z,0
2022-10-06T17:30:37.043Z,0
2022-10-06T17:31:53.339Z,0
2022-10-06T17:33:09.637Z,0
2022-10-06T17:34:25.939Z,0
2022-10-06T17:35:42.225Z,0
2022-10-06T17:36:58.520Z,0
2022-10-06T17:38:14.825Z,0
2022-10-06T17:39:31.099Z,0
2022-10-06T17:40:47.403Z,0
2022-10-06T17:42:02.721Z,0
2022-10-06T17:43:19.009Z,0
2022-10-06T17:44:35.288Z,0
2022-10-06T17:45:51.583Z,0
2022-10-06T17:47:07.881Z,0
2022-10-06T17:48:24.171Z,0
2022-10-06T17:49:40.468Z,0
2022-10-06T17:50:56.776Z,0
2022-10-06T17:52:13.060Z,0
2022-10-06T17:53:29.369Z,0